sensor_id;sensor_type;location;lat;lon;timestamp;temperature;humidity
24152;DHT22;12311;50.866;4.332;2024-01-11T00:02:22;-2.40;75.40
24152;DHT22;12311;50.866;4.332;2024-01-11T00:04:48;-2.50;74.80
24152;DHT22;12311;50.866;4.332;2024-01-11T00:07:14;-2.40;75.50
24152;DHT22;12311;50.866;4.332;2024-01-11T00:09:42;-2.50;78.10
24152;DHT22;12311;50.866;4.332;2024-01-11T00:12:08;-2.50;76.80
24152;DHT22;12311;50.866;4.332;2024-01-11T00:14:34;-2.50;79.00
24152;DHT22;12311;50.866;4.332;2024-01-11T00:17:00;-2.40;76.90
24152;DHT22;12311;50.866;4.332;2024-01-11T00:19:26;-2.40;77.30
24152;DHT22;12311;50.866;4.332;2024-01-11T00:21:52;-2.40;77.40
24152;DHT22;12311;50.866;4.332;2024-01-11T00:24:18;-2.50;77.90
24152;DHT22;12311;50.866;4.332;2024-01-11T00:26:44;-2.50;78.00
24152;DHT22;12311;50.866;4.332;2024-01-11T00:29:09;-2.50;78.00
24152;DHT22;12311;50.866;4.332;2024-01-11T00:31:35;-2.50;76.90
24152;DHT22;12311;50.866;4.332;2024-01-11T00:34:01;-2.50;78.10
24152;DHT22;12311;50.866;4.332;2024-01-11T00:36:26;-2.50;79.80
24152;DHT22;12311;50.866;4.332;2024-01-11T00:38:53;-2.50;79.00
24152;DHT22;12311;50.866;4.332;2024-01-11T00:41:19;-2.50;80.10
24152;DHT22;12311;50.866;4.332;2024-01-11T00:43:45;-2.60;82.00
24152;DHT22;12311;50.866;4.332;2024-01-11T00:46:11;-2.60;82.30
24152;DHT22;12311;50.866;4.332;2024-01-11T00:48:36;-2.50;80.50
24152;DHT22;12311;50.866;4.332;2024-01-11T00:51:04;-2.60;80.70
24152;DHT22;12311;50.866;4.332;2024-01-11T00:53:30;-2.60;82.50
24152;DHT22;12311;50.866;4.332;2024-01-11T00:56:00;-2.70;83.20
24152;DHT22;12311;50.866;4.332;2024-01-11T00:58:26;-2.60;84.40
24152;DHT22;12311;50.866;4.332;2024-01-11T01:00:53;-2.60;83.80
24152;DHT22;12311;50.866;4.332;2024-01-11T01:03:20;-2.70;82.50
24152;DHT22;12311;50.866;4.332;2024-01-11T01:05:46;-2.80;84.20
24152;DHT22;12311;50.866;4.332;2024-01-11T01:08:12;-2.70;85.30
24152;DHT22;12311;50.866;4.332;2024-01-11T01:10:37;-2.80;85.80
24152;DHT22;12311;50.866;4.332;2024-01-11T01:13:04;-2.80;86.10
24152;DHT22;12311;50.866;4.332;2024-01-11T01:15:29;-2.80;85.30
24152;DHT22;12311;50.866;4.332;2024-01-11T01:17:55;-2.70;84.10
24152;DHT22;12311;50.866;4.332;2024-01-11T01:20:21;-2.70;83.40
24152;DHT22;12311;50.866;4.332;2024-01-11T01:22:47;-2.70;83.00
24152;DHT22;12311;50.866;4.332;2024-01-11T01:25:13;-2.60;79.20
24152;DHT22;12311;50.866;4.332;2024-01-11T01:27:38;-2.60;79.40
24152;DHT22;12311;50.866;4.332;2024-01-11T01:30:05;-2.80;81.20
24152;DHT22;12311;50.866;4.332;2024-01-11T01:32:30;-2.90;83.80
24152;DHT22;12311;50.866;4.332;2024-01-11T01:34:56;-2.80;83.30
24152;DHT22;12311;50.866;4.332;2024-01-11T01:37:22;-2.90;84.50
24152;DHT22;12311;50.866;4.332;2024-01-11T01:39:47;-2.90;84.60
24152;DHT22;12311;50.866;4.332;2024-01-11T01:42:13;-2.90;83.80
24152;DHT22;12311;50.866;4.332;2024-01-11T01:44:38;-3.00;85.70
24152;DHT22;12311;50.866;4.332;2024-01-11T01:47:07;-2.90;86.40
24152;DHT22;12311;50.866;4.332;2024-01-11T01:49:34;-2.90;86.00
24152;DHT22;12311;50.866;4.332;2024-01-11T01:52:01;-3.00;85.60
24152;DHT22;12311;50.866;4.332;2024-01-11T01:54:27;-3.00;85.00
24152;DHT22;12311;50.866;4.332;2024-01-11T01:56:53;-3.00;85.60
24152;DHT22;12311;50.866;4.332;2024-01-11T01:59:20;-3.00;85.80
24152;DHT22;12311;50.866;4.332;2024-01-11T02:01:46;-3.10;86.40
24152;DHT22;12311;50.866;4.332;2024-01-11T02:04:12;-3.00;87.20
24152;DHT22;12311;50.866;4.332;2024-01-11T02:06:38;-3.00;86.60
24152;DHT22;12311;50.866;4.332;2024-01-11T02:09:03;-3.00;88.70
24152;DHT22;12311;50.866;4.332;2024-01-11T02:11:30;-3.00;89.40
24152;DHT22;12311;50.866;4.332;2024-01-11T02:13:56;-2.90;88.40
24152;DHT22;12311;50.866;4.332;2024-01-11T02:16:23;-2.90;86.50
24152;DHT22;12311;50.866;4.332;2024-01-11T02:18:49;-2.90;85.80
24152;DHT22;12311;50.866;4.332;2024-01-11T02:21:15;-2.90;86.30
24152;DHT22;12311;50.866;4.332;2024-01-11T02:23:57;-3.00;87.40
24152;DHT22;12311;50.866;4.332;2024-01-11T02:26:23;-3.10;90.00
24152;DHT22;12311;50.866;4.332;2024-01-11T02:28:49;-3.10;90.60
24152;DHT22;12311;50.866;4.332;2024-01-11T02:31:14;-3.10;90.70
24152;DHT22;12311;50.866;4.332;2024-01-11T02:33:40;-3.10;91.00
24152;DHT22;12311;50.866;4.332;2024-01-11T02:36:06;-3.20;91.30
24152;DHT22;12311;50.866;4.332;2024-01-11T02:38:33;-3.20;91.60
24152;DHT22;12311;50.866;4.332;2024-01-11T02:41:00;-3.10;91.30
24152;DHT22;12311;50.866;4.332;2024-01-11T02:43:26;-3.00;91.30
24152;DHT22;12311;50.866;4.332;2024-01-11T02:45:55;-3.00;90.80
24152;DHT22;12311;50.866;4.332;2024-01-11T02:48:21;-3.20;90.30
24152;DHT22;12311;50.866;4.332;2024-01-11T02:50:48;-3.10;91.40
24152;DHT22;12311;50.866;4.332;2024-01-11T02:53:14;-3.20;91.60
24152;DHT22;12311;50.866;4.332;2024-01-11T02:55:40;-3.30;92.20
24152;DHT22;12311;50.866;4.332;2024-01-11T02:58:05;-3.20;92.60
24152;DHT22;12311;50.866;4.332;2024-01-11T03:00:31;-3.10;92.40
24152;DHT22;12311;50.866;4.332;2024-01-11T03:02:57;-3.20;91.90
24152;DHT22;12311;50.866;4.332;2024-01-11T03:05:22;-3.20;92.60
24152;DHT22;12311;50.866;4.332;2024-01-11T03:07:48;-3.20;92.00
24152;DHT22;12311;50.866;4.332;2024-01-11T03:10:14;-3.20;92.30
24152;DHT22;12311;50.866;4.332;2024-01-11T03:12:39;-3.20;92.90
24152;DHT22;12311;50.866;4.332;2024-01-11T03:15:05;-3.20;92.80
24152;DHT22;12311;50.866;4.332;2024-01-11T03:17:32;-3.10;92.20
24152;DHT22;12311;50.866;4.332;2024-01-11T03:19:58;-3.10;92.40
24152;DHT22;12311;50.866;4.332;2024-01-11T03:22:25;-3.10;92.10
24152;DHT22;12311;50.866;4.332;2024-01-11T03:24:52;-3.20;91.80
24152;DHT22;12311;50.866;4.332;2024-01-11T03:27:18;-3.20;92.60
24152;DHT22;12311;50.866;4.332;2024-01-11T03:29:43;-3.20;93.10
24152;DHT22;12311;50.866;4.332;2024-01-11T03:32:09;-3.30;92.90
24152;DHT22;12311;50.866;4.332;2024-01-11T03:34:38;-3.40;93.70
24152;DHT22;12311;50.866;4.332;2024-01-11T03:37:03;-3.40;94.40
24152;DHT22;12311;50.866;4.332;2024-01-11T03:39:29;-3.30;94.60
24152;DHT22;12311;50.866;4.332;2024-01-11T03:41:55;-3.30;94.70
24152;DHT22;12311;50.866;4.332;2024-01-11T03:44:20;-3.30;93.90
24152;DHT22;12311;50.866;4.332;2024-01-11T03:46:46;-3.40;93.90
24152;DHT22;12311;50.866;4.332;2024-01-11T03:49:12;-3.30;94.00
24152;DHT22;12311;50.866;4.332;2024-01-11T03:51:37;-3.40;94.50
24152;DHT22;12311;50.866;4.332;2024-01-11T03:54:03;-3.40;95.60
24152;DHT22;12311;50.866;4.332;2024-01-11T03:56:29;-3.40;95.90
24152;DHT22;12311;50.866;4.332;2024-01-11T03:58:54;-3.40;96.30
24152;DHT22;12311;50.866;4.332;2024-01-11T04:01:20;-3.30;96.20
24152;DHT22;12311;50.866;4.332;2024-01-11T04:03:46;-3.30;95.40
24152;DHT22;12311;50.866;4.332;2024-01-11T04:06:22;-3.30;96.00
24152;DHT22;12311;50.866;4.332;2024-01-11T04:08:48;-3.30;96.00
24152;DHT22;12311;50.866;4.332;2024-01-11T04:11:14;-3.40;96.50
24152;DHT22;12311;50.866;4.332;2024-01-11T04:13:39;-3.40;97.10
24152;DHT22;12311;50.866;4.332;2024-01-11T04:16:06;-3.40;97.40
24152;DHT22;12311;50.866;4.332;2024-01-11T04:18:32;-3.40;97.20
24152;DHT22;12311;50.866;4.332;2024-01-11T04:20:58;-3.40;96.70
24152;DHT22;12311;50.866;4.332;2024-01-11T04:23:24;-3.50;97.50
24152;DHT22;12311;50.866;4.332;2024-01-11T04:25:50;-3.40;98.10
24152;DHT22;12311;50.866;4.332;2024-01-11T04:28:18;-3.50;98.20
24152;DHT22;12311;50.866;4.332;2024-01-11T04:30:44;-3.40;98.00
24152;DHT22;12311;50.866;4.332;2024-01-11T04:33:10;-3.50;98.00
24152;DHT22;12311;50.866;4.332;2024-01-11T04:35:36;-3.40;98.00
24152;DHT22;12311;50.866;4.332;2024-01-11T04:38:02;-3.50;98.10
24152;DHT22;12311;50.866;4.332;2024-01-11T04:40:28;-3.50;98.60
24152;DHT22;12311;50.866;4.332;2024-01-11T04:42:53;-3.50;98.40
24152;DHT22;12311;50.866;4.332;2024-01-11T04:45:19;-3.40;98.90
24152;DHT22;12311;50.866;4.332;2024-01-11T04:47:45;-3.50;98.20
24152;DHT22;12311;50.866;4.332;2024-01-11T04:50:11;-3.50;98.30
24152;DHT22;12311;50.866;4.332;2024-01-11T04:52:36;-3.50;98.70
24152;DHT22;12311;50.866;4.332;2024-01-11T04:55:02;-3.50;99.30
24152;DHT22;12311;50.866;4.332;2024-01-11T04:57:28;-3.60;99.40
24152;DHT22;12311;50.866;4.332;2024-01-11T04:59:53;-3.50;99.90
24152;DHT22;12311;50.866;4.332;2024-01-11T05:02:22;-3.50;99.70
24152;DHT22;12311;50.866;4.332;2024-01-11T05:04:48;-3.50;99.80
24152;DHT22;12311;50.866;4.332;2024-01-11T05:07:14;-3.50;99.90
24152;DHT22;12311;50.866;4.332;2024-01-11T05:09:39;-3.50;99.90
24152;DHT22;12311;50.866;4.332;2024-01-11T05:12:05;-3.50;99.90
24152;DHT22;12311;50.866;4.332;2024-01-11T05:14:31;-3.50;99.90
24152;DHT22;12311;50.866;4.332;2024-01-11T05:16:57;-3.50;99.90
24152;DHT22;12311;50.866;4.332;2024-01-11T05:19:23;-3.50;99.90
24152;DHT22;12311;50.866;4.332;2024-01-11T05:21:48;-3.60;99.90
24152;DHT22;12311;50.866;4.332;2024-01-11T05:24:14;-3.50;99.90
24152;DHT22;12311;50.866;4.332;2024-01-11T05:26:40;-3.60;99.90
24152;DHT22;12311;50.866;4.332;2024-01-11T05:29:05;-3.60;99.90
24152;DHT22;12311;50.866;4.332;2024-01-11T05:31:31;-3.60;99.90
24152;DHT22;12311;50.866;4.332;2024-01-11T05:33:57;-3.60;99.90
24152;DHT22;12311;50.866;4.332;2024-01-11T05:36:23;-3.60;99.90
24152;DHT22;12311;50.866;4.332;2024-01-11T05:38:48;-3.70;99.90
24152;DHT22;12311;50.866;4.332;2024-01-11T05:41:14;-3.70;99.90
24152;DHT22;12311;50.866;4.332;2024-01-11T05:43:40;-3.60;99.90
24152;DHT22;12311;50.866;4.332;2024-01-11T05:46:07;-3.60;99.90
24152;DHT22;12311;50.866;4.332;2024-01-11T05:48:33;-3.60;99.90
24152;DHT22;12311;50.866;4.332;2024-01-11T05:50:59;-3.60;99.90
24152;DHT22;12311;50.866;4.332;2024-01-11T05:53:25;-3.70;99.90
24152;DHT22;12311;50.866;4.332;2024-01-11T05:55:53;-3.70;99.90
24152;DHT22;12311;50.866;4.332;2024-01-11T05:58:19;-3.60;99.90
24152;DHT22;12311;50.866;4.332;2024-01-11T06:00:45;-3.60;99.90
24152;DHT22;12311;50.866;4.332;2024-01-11T06:03:12;-3.80;99.90
24152;DHT22;12311;50.866;4.332;2024-01-11T06:05:38;-3.70;99.90
24152;DHT22;12311;50.866;4.332;2024-01-11T06:08:04;-3.80;99.90
24152;DHT22;12311;50.866;4.332;2024-01-11T06:10:30;-3.70;99.90
24152;DHT22;12311;50.866;4.332;2024-01-11T06:12:56;-3.80;99.90
24152;DHT22;12311;50.866;4.332;2024-01-11T06:15:22;-3.70;99.90
24152;DHT22;12311;50.866;4.332;2024-01-11T06:17:47;-3.60;99.90
24152;DHT22;12311;50.866;4.332;2024-01-11T06:20:13;-3.60;99.90
24152;DHT22;12311;50.866;4.332;2024-01-11T06:22:39;-3.60;99.90
24152;DHT22;12311;50.866;4.332;2024-01-11T06:25:05;-3.70;99.90
24152;DHT22;12311;50.866;4.332;2024-01-11T06:27:31;-3.70;99.90
24152;DHT22;12311;50.866;4.332;2024-01-11T06:29:56;-3.80;99.90
24152;DHT22;12311;50.866;4.332;2024-01-11T06:32:22;-3.80;99.90
24152;DHT22;12311;50.866;4.332;2024-01-11T06:34:48;-3.80;99.90
24152;DHT22;12311;50.866;4.332;2024-01-11T06:37:13;-3.90;99.90
24152;DHT22;12311;50.866;4.332;2024-01-11T06:39:39;-3.80;99.90
24152;DHT22;12311;50.866;4.332;2024-01-11T06:42:05;-3.80;99.90
24152;DHT22;12311;50.866;4.332;2024-01-11T06:44:30;-3.80;99.90
24152;DHT22;12311;50.866;4.332;2024-01-11T06:46:56;-3.80;99.90
24152;DHT22;12311;50.866;4.332;2024-01-11T06:49:22;-3.70;99.90
24152;DHT22;12311;50.866;4.332;2024-01-11T06:51:47;-3.90;99.90
24152;DHT22;12311;50.866;4.332;2024-01-11T06:54:13;-3.90;99.90
24152;DHT22;12311;50.866;4.332;2024-01-11T06:56:39;-3.90;99.90
24152;DHT22;12311;50.866;4.332;2024-01-11T06:59:05;-3.80;99.90
24152;DHT22;12311;50.866;4.332;2024-01-11T07:01:30;-3.90;99.90
24152;DHT22;12311;50.866;4.332;2024-01-11T07:03:56;-3.90;99.90
24152;DHT22;12311;50.866;4.332;2024-01-11T07:06:22;-3.80;99.90
24152;DHT22;12311;50.866;4.332;2024-01-11T07:08:48;-3.90;99.90
24152;DHT22;12311;50.866;4.332;2024-01-11T07:11:13;-4.00;99.90
24152;DHT22;12311;50.866;4.332;2024-01-11T07:13:39;-4.00;99.90
24152;DHT22;12311;50.866;4.332;2024-01-11T07:16:05;-4.00;99.90
24152;DHT22;12311;50.866;4.332;2024-01-11T07:18:31;-4.00;99.90
24152;DHT22;12311;50.866;4.332;2024-01-11T07:20:57;-3.90;99.90
24152;DHT22;12311;50.866;4.332;2024-01-11T07:23:28;-3.90;99.90
24152;DHT22;12311;50.866;4.332;2024-01-11T07:25:54;-3.90;99.90
24152;DHT22;12311;50.866;4.332;2024-01-11T07:28:20;-3.90;99.90
24152;DHT22;12311;50.866;4.332;2024-01-11T07:30:51;-3.90;99.90
24152;DHT22;12311;50.866;4.332;2024-01-11T07:33:17;-3.90;99.90
24152;DHT22;12311;50.866;4.332;2024-01-11T07:35:42;-4.00;99.90
24152;DHT22;12311;50.866;4.332;2024-01-11T07:38:08;-4.10;99.90
24152;DHT22;12311;50.866;4.332;2024-01-11T07:40:34;-4.10;99.90
24152;DHT22;12311;50.866;4.332;2024-01-11T07:42:59;-4.10;99.90
24152;DHT22;12311;50.866;4.332;2024-01-11T07:45:25;-4.10;99.90
24152;DHT22;12311;50.866;4.332;2024-01-11T07:47:51;-4.00;99.90
24152;DHT22;12311;50.866;4.332;2024-01-11T07:50:16;-4.00;99.90
24152;DHT22;12311;50.866;4.332;2024-01-11T07:52:42;-4.00;99.90
24152;DHT22;12311;50.866;4.332;2024-01-11T07:55:09;-4.00;99.90
24152;DHT22;12311;50.866;4.332;2024-01-11T07:57:39;-4.10;99.90
24152;DHT22;12311;50.866;4.332;2024-01-11T08:00:06;-4.10;99.90
24152;DHT22;12311;50.866;4.332;2024-01-11T08:02:35;-4.10;99.90
24152;DHT22;12311;50.866;4.332;2024-01-11T08:05:01;-4.10;99.90
24152;DHT22;12311;50.866;4.332;2024-01-11T08:07:27;-4.00;99.90
24152;DHT22;12311;50.866;4.332;2024-01-11T08:09:53;-4.00;99.90
24152;DHT22;12311;50.866;4.332;2024-01-11T08:12:19;-3.90;99.90
24152;DHT22;12311;50.866;4.332;2024-01-11T08:14:44;-3.90;99.90
24152;DHT22;12311;50.866;4.332;2024-01-11T08:17:12;-3.90;99.90
24152;DHT22;12311;50.866;4.332;2024-01-11T08:19:42;-3.90;99.90
24152;DHT22;12311;50.866;4.332;2024-01-11T08:22:10;-3.90;99.90
24152;DHT22;12311;50.866;4.332;2024-01-11T08:24:37;-3.90;99.90
24152;DHT22;12311;50.866;4.332;2024-01-11T08:27:02;-3.80;99.90
24152;DHT22;12311;50.866;4.332;2024-01-11T08:29:28;-3.80;99.90
24152;DHT22;12311;50.866;4.332;2024-01-11T08:31:55;-3.80;99.90
24152;DHT22;12311;50.866;4.332;2024-01-11T08:34:22;-3.70;99.90
24152;DHT22;12311;50.866;4.332;2024-01-11T08:36:47;-3.70;99.90
24152;DHT22;12311;50.866;4.332;2024-01-11T08:39:13;-3.70;99.90
24152;DHT22;12311;50.866;4.332;2024-01-11T08:41:40;-3.70;99.90
24152;DHT22;12311;50.866;4.332;2024-01-11T08:44:06;-3.70;99.90
24152;DHT22;12311;50.866;4.332;2024-01-11T08:46:32;-3.70;99.90
24152;DHT22;12311;50.866;4.332;2024-01-11T08:49:01;-3.70;99.90
24152;DHT22;12311;50.866;4.332;2024-01-11T08:51:29;-3.60;99.90
24152;DHT22;12311;50.866;4.332;2024-01-11T08:53:54;-3.60;99.90
24152;DHT22;12311;50.866;4.332;2024-01-11T08:56:21;-3.60;99.90
24152;DHT22;12311;50.866;4.332;2024-01-11T08:58:46;-3.50;99.90
24152;DHT22;12311;50.866;4.332;2024-01-11T09:01:13;-3.50;99.90
24152;DHT22;12311;50.866;4.332;2024-01-11T09:03:39;-3.50;99.90
24152;DHT22;12311;50.866;4.332;2024-01-11T09:06:05;-3.40;99.90
24152;DHT22;12311;50.866;4.332;2024-01-11T09:08:31;-3.40;99.90
24152;DHT22;12311;50.866;4.332;2024-01-11T09:10:57;-3.50;99.90
24152;DHT22;12311;50.866;4.332;2024-01-11T09:13:24;-3.40;99.90
24152;DHT22;12311;50.866;4.332;2024-01-11T09:15:51;-3.40;99.90
24152;DHT22;12311;50.866;4.332;2024-01-11T09:18:17;-3.40;99.90
24152;DHT22;12311;50.866;4.332;2024-01-11T09:20:43;-3.40;99.90
24152;DHT22;12311;50.866;4.332;2024-01-11T09:23:09;-3.30;99.90
24152;DHT22;12311;50.866;4.332;2024-01-11T09:25:35;-3.30;99.90
24152;DHT22;12311;50.866;4.332;2024-01-11T09:28:01;-3.20;99.90
24152;DHT22;12311;50.866;4.332;2024-01-11T09:30:26;-3.20;99.90
24152;DHT22;12311;50.866;4.332;2024-01-11T09:32:52;-3.10;99.90
24152;DHT22;12311;50.866;4.332;2024-01-11T09:35:18;-3.00;99.90
24152;DHT22;12311;50.866;4.332;2024-01-11T09:37:43;-2.90;99.90
24152;DHT22;12311;50.866;4.332;2024-01-11T09:40:12;-2.70;99.90
24152;DHT22;12311;50.866;4.332;2024-01-11T09:42:38;-2.60;99.90
24152;DHT22;12311;50.866;4.332;2024-01-11T09:45:17;-2.40;99.90
24152;DHT22;12311;50.866;4.332;2024-01-11T09:47:45;-2.30;99.40
24152;DHT22;12311;50.866;4.332;2024-01-11T09:50:13;-2.10;99.30
24152;DHT22;12311;50.866;4.332;2024-01-11T09:52:47;-1.90;98.20
24152;DHT22;12311;50.866;4.332;2024-01-11T09:55:16;-1.60;99.10
24152;DHT22;12311;50.866;4.332;2024-01-11T09:57:52;-1.20;98.50
24152;DHT22;12311;50.866;4.332;2024-01-11T10:00:25;-1.10;95.00
24152;DHT22;12311;50.866;4.332;2024-01-11T10:02:51;-1.00;94.20
24152;DHT22;12311;50.866;4.332;2024-01-11T10:05:18;-0.90;91.30
24152;DHT22;12311;50.866;4.332;2024-01-11T10:07:44;-0.70;90.60
24152;DHT22;12311;50.866;4.332;2024-01-11T10:10:11;-0.50;90.10
24152;DHT22;12311;50.866;4.332;2024-01-11T10:12:40;-0.50;79.90
24152;DHT22;12311;50.866;4.332;2024-01-11T10:15:08;-0.40;73.70
24152;DHT22;12311;50.866;4.332;2024-01-11T10:17:41;-0.10;78.90
24152;DHT22;12311;50.866;4.332;2024-01-11T10:20:14;0.10;69.80
24152;DHT22;12311;50.866;4.332;2024-01-11T10:22:41;0.40;69.40
24152;DHT22;12311;50.866;4.332;2024-01-11T10:25:14;0.60;54.40
24152;DHT22;12311;50.866;4.332;2024-01-11T10:27:41;0.50;45.30
24152;DHT22;12311;50.866;4.332;2024-01-11T10:30:08;0.70;50.20
24152;DHT22;12311;50.866;4.332;2024-01-11T10:32:34;0.80;43.80
24152;DHT22;12311;50.866;4.332;2024-01-11T10:35:02;0.90;39.50
24152;DHT22;12311;50.866;4.332;2024-01-11T10:37:31;1.20;44.30
24152;DHT22;12311;50.866;4.332;2024-01-11T10:39:58;1.40;43.10
24152;DHT22;12311;50.866;4.332;2024-01-11T10:42:27;1.70;34.90
24152;DHT22;12311;50.866;4.332;2024-01-11T10:44:55;1.80;24.90
24152;DHT22;12311;50.866;4.332;2024-01-11T10:47:24;1.60;20.30
24152;DHT22;12311;50.866;4.332;2024-01-11T10:49:55;1.60;21.40
24152;DHT22;12311;50.866;4.332;2024-01-11T10:52:25;1.40;16.60
24152;DHT22;12311;50.866;4.332;2024-01-11T10:54:54;1.60;22.50
24152;DHT22;12311;50.866;4.332;2024-01-11T10:57:21;1.70;20.60
24152;DHT22;12311;50.866;4.332;2024-01-11T10:59:48;2.10;21.80
24152;DHT22;12311;50.866;4.332;2024-01-11T11:02:16;2.10;14.80
24152;DHT22;12311;50.866;4.332;2024-01-11T11:04:43;1.90;8.20
24152;DHT22;12311;50.866;4.332;2024-01-11T11:07:09;2.00;14.20
24152;DHT22;12311;50.866;4.332;2024-01-11T11:09:37;2.30;13.30
24152;DHT22;12311;50.866;4.332;2024-01-11T11:12:06;2.20;6.10
24152;DHT22;12311;50.866;4.332;2024-01-11T11:14:34;2.20;4.80
24152;DHT22;12311;50.866;4.332;2024-01-11T11:17:00;2.40;2.30
24152;DHT22;12311;50.866;4.332;2024-01-11T11:19:26;2.40;1.00
24152;DHT22;12311;50.866;4.332;2024-01-11T11:21:51;2.70;5.90
24152;DHT22;12311;50.866;4.332;2024-01-11T11:24:17;2.90;1.00
24152;DHT22;12311;50.866;4.332;2024-01-11T11:26:44;3.00;1.00
24152;DHT22;12311;50.866;4.332;2024-01-11T11:29:09;3.00;1.00
24152;DHT22;12311;50.866;4.332;2024-01-11T11:31:42;3.00;1.00
24152;DHT22;12311;50.866;4.332;2024-01-11T11:34:14;3.00;1.00
24152;DHT22;12311;50.866;4.332;2024-01-11T11:36:40;3.40;1.00
24152;DHT22;12311;50.866;4.332;2024-01-11T11:39:10;3.50;1.00
24152;DHT22;12311;50.866;4.332;2024-01-11T11:41:39;3.70;1.00
24152;DHT22;12311;50.866;4.332;2024-01-11T11:44:06;3.80;1.00
24152;DHT22;12311;50.866;4.332;2024-01-11T11:46:32;3.50;1.00
24152;DHT22;12311;50.866;4.332;2024-01-11T11:48:58;3.50;1.00
24152;DHT22;12311;50.866;4.332;2024-01-11T11:51:25;3.70;1.00
24152;DHT22;12311;50.866;4.332;2024-01-11T11:53:51;3.80;1.00
24152;DHT22;12311;50.866;4.332;2024-01-11T11:56:19;4.00;1.00
24152;DHT22;12311;50.866;4.332;2024-01-11T11:58:46;4.20;1.00
24152;DHT22;12311;50.866;4.332;2024-01-11T12:01:14;4.20;1.00
24152;DHT22;12311;50.866;4.332;2024-01-11T12:03:41;4.20;1.00
24152;DHT22;12311;50.866;4.332;2024-01-11T12:06:11;4.40;1.00
24152;DHT22;12311;50.866;4.332;2024-01-11T12:08:37;4.20;1.00
24152;DHT22;12311;50.866;4.332;2024-01-11T12:11:03;4.00;1.00
24152;DHT22;12311;50.866;4.332;2024-01-11T12:13:29;4.10;1.00
24152;DHT22;12311;50.866;4.332;2024-01-11T12:15:56;4.30;1.00
24152;DHT22;12311;50.866;4.332;2024-01-11T12:18:22;4.40;1.00
24152;DHT22;12311;50.866;4.332;2024-01-11T12:20:48;4.30;1.00
24152;DHT22;12311;50.866;4.332;2024-01-11T12:23:14;4.40;1.00
24152;DHT22;12311;50.866;4.332;2024-01-11T12:25:41;4.30;1.00
24152;DHT22;12311;50.866;4.332;2024-01-11T12:28:07;4.00;1.00
24152;DHT22;12311;50.866;4.332;2024-01-11T12:30:33;3.90;1.00
24152;DHT22;12311;50.866;4.332;2024-01-11T12:33:00;4.00;1.00
24152;DHT22;12311;50.866;4.332;2024-01-11T12:35:32;4.10;1.00
24152;DHT22;12311;50.866;4.332;2024-01-11T12:37:59;4.30;1.00
24152;DHT22;12311;50.866;4.332;2024-01-11T12:40:26;4.50;1.00
24152;DHT22;12311;50.866;4.332;2024-01-11T12:42:53;4.50;1.00
24152;DHT22;12311;50.866;4.332;2024-01-11T12:45:20;4.70;1.00
24152;DHT22;12311;50.866;4.332;2024-01-11T12:47:46;4.80;1.00
24152;DHT22;12311;50.866;4.332;2024-01-11T12:50:12;5.10;1.00
24152;DHT22;12311;50.866;4.332;2024-01-11T12:52:41;5.10;1.00
24152;DHT22;12311;50.866;4.332;2024-01-11T12:55:08;5.20;1.00
24152;DHT22;12311;50.866;4.332;2024-01-11T12:57:43;5.10;1.00
24152;DHT22;12311;50.866;4.332;2024-01-11T13:00:15;4.90;1.00
24152;DHT22;12311;50.866;4.332;2024-01-11T13:02:42;5.00;1.00
24152;DHT22;12311;50.866;4.332;2024-01-11T13:05:11;4.70;1.00
24152;DHT22;12311;50.866;4.332;2024-01-11T13:07:38;4.80;1.00
24152;DHT22;12311;50.866;4.332;2024-01-11T13:10:04;4.90;1.00
24152;DHT22;12311;50.866;4.332;2024-01-11T13:12:30;5.10;1.00
24152;DHT22;12311;50.866;4.332;2024-01-11T13:14:56;5.10;1.00
24152;DHT22;12311;50.866;4.332;2024-01-11T13:17:22;5.30;1.00
24152;DHT22;12311;50.866;4.332;2024-01-11T13:19:48;5.50;1.00
24152;DHT22;12311;50.866;4.332;2024-01-11T13:22:14;5.60;1.00
24152;DHT22;12311;50.866;4.332;2024-01-11T13:24:39;5.70;1.00
24152;DHT22;12311;50.866;4.332;2024-01-11T13:27:05;5.70;1.00
24152;DHT22;12311;50.866;4.332;2024-01-11T13:29:31;5.40;1.00
24152;DHT22;12311;50.866;4.332;2024-01-11T13:31:57;5.20;1.00
24152;DHT22;12311;50.866;4.332;2024-01-11T13:34:22;5.20;1.00
24152;DHT22;12311;50.866;4.332;2024-01-11T13:36:48;5.00;1.00
24152;DHT22;12311;50.866;4.332;2024-01-11T13:39:14;5.20;1.00
24152;DHT22;12311;50.866;4.332;2024-01-11T13:41:43;5.10;1.00
24152;DHT22;12311;50.866;4.332;2024-01-11T13:44:09;5.10;1.00
24152;DHT22;12311;50.866;4.332;2024-01-11T13:46:36;5.10;1.00
24152;DHT22;12311;50.866;4.332;2024-01-11T13:49:02;5.20;1.00
24152;DHT22;12311;50.866;4.332;2024-01-11T13:51:28;5.30;1.00
24152;DHT22;12311;50.866;4.332;2024-01-11T13:53:54;5.10;1.00
24152;DHT22;12311;50.866;4.332;2024-01-11T13:56:19;5.10;1.00
24152;DHT22;12311;50.866;4.332;2024-01-11T13:58:45;5.30;1.00
24152;DHT22;12311;50.866;4.332;2024-01-11T14:01:11;5.60;1.00
24152;DHT22;12311;50.866;4.332;2024-01-11T14:03:38;5.80;1.00
24152;DHT22;12311;50.866;4.332;2024-01-11T14:06:04;5.90;1.00
24152;DHT22;12311;50.866;4.332;2024-01-11T14:08:30;5.70;1.00
24152;DHT22;12311;50.866;4.332;2024-01-11T14:10:56;5.30;1.00
24152;DHT22;12311;50.866;4.332;2024-01-11T14:13:22;5.30;1.00
24152;DHT22;12311;50.866;4.332;2024-01-11T14:15:47;5.10;1.00
24152;DHT22;12311;50.866;4.332;2024-01-11T14:18:14;5.00;1.00
24152;DHT22;12311;50.866;4.332;2024-01-11T14:20:39;5.00;1.00
24152;DHT22;12311;50.866;4.332;2024-01-11T14:23:05;5.00;1.00
24152;DHT22;12311;50.866;4.332;2024-01-11T14:25:30;5.10;1.00
24152;DHT22;12311;50.866;4.332;2024-01-11T14:27:56;5.20;1.00
24152;DHT22;12311;50.866;4.332;2024-01-11T14:30:22;4.90;1.00
24152;DHT22;12311;50.866;4.332;2024-01-11T14:32:48;4.80;1.00
24152;DHT22;12311;50.866;4.332;2024-01-11T14:35:14;4.60;1.00
24152;DHT22;12311;50.866;4.332;2024-01-11T14:37:40;4.50;1.00
24152;DHT22;12311;50.866;4.332;2024-01-11T14:40:07;4.50;1.00
24152;DHT22;12311;50.866;4.332;2024-01-11T14:42:36;4.50;1.00
24152;DHT22;12311;50.866;4.332;2024-01-11T14:45:02;4.50;1.00
24152;DHT22;12311;50.866;4.332;2024-01-11T14:47:29;4.60;1.00
24152;DHT22;12311;50.866;4.332;2024-01-11T14:49:55;4.40;1.00
24152;DHT22;12311;50.866;4.332;2024-01-11T14:52:20;4.30;1.00
24152;DHT22;12311;50.866;4.332;2024-01-11T14:54:47;4.40;1.00
24152;DHT22;12311;50.866;4.332;2024-01-11T14:57:13;4.40;1.00
24152;DHT22;12311;50.866;4.332;2024-01-11T14:59:39;4.20;1.00
24152;DHT22;12311;50.866;4.332;2024-01-11T15:02:04;3.90;1.00
24152;DHT22;12311;50.866;4.332;2024-01-11T15:04:30;3.80;1.00
24152;DHT22;12311;50.866;4.332;2024-01-11T15:06:56;3.80;1.00
24152;DHT22;12311;50.866;4.332;2024-01-11T15:09:22;3.60;1.00
24152;DHT22;12311;50.866;4.332;2024-01-11T15:11:48;3.50;1.00
24152;DHT22;12311;50.866;4.332;2024-01-11T15:14:14;3.20;1.00
24152;DHT22;12311;50.866;4.332;2024-01-11T15:16:40;3.10;1.00
24152;DHT22;12311;50.866;4.332;2024-01-11T15:19:05;2.90;1.00
24152;DHT22;12311;50.866;4.332;2024-01-11T15:21:31;2.70;1.00
24152;DHT22;12311;50.866;4.332;2024-01-11T15:23:57;2.50;1.00
24152;DHT22;12311;50.866;4.332;2024-01-11T15:26:26;2.40;1.00
24152;DHT22;12311;50.866;4.332;2024-01-11T15:28:54;2.20;1.00
24152;DHT22;12311;50.866;4.332;2024-01-11T15:31:20;2.10;1.00
24152;DHT22;12311;50.866;4.332;2024-01-11T15:33:46;2.00;1.00
24152;DHT22;12311;50.866;4.332;2024-01-11T15:36:12;2.00;1.00